createdAt,value
2019-02-12T00:01:48.682Z,10.33
2019-02-12T00:04:17.488Z,7.50
2019-02-12T00:06:46.207Z,7.40
2019-02-12T00:09:15.123Z,3.10
2019-02-12T00:11:43.824Z,5.50
2019-02-12T00:14:12.628Z,6.37
2019-02-12T00:16:41.344Z,4.63
2019-02-12T00:19:10.058Z,10.30
2019-02-12T00:21:38.758Z,5.47
2019-02-12T00:24:07.621Z,7.03
2019-02-12T00:26:36.422Z,4.43
2019-02-12T00:29:05.115Z,6.03
2019-02-12T00:31:33.921Z,6.67
2019-02-12T00:34:02.664Z,10.17
2019-02-12T00:36:31.367Z,6.93
2019-02-12T00:39:00.079Z,8.83
2019-02-12T00:41:28.855Z,4.10
2019-02-12T00:43:57.575Z,7.23
2019-02-12T00:46:26.285Z,10.83
2019-02-12T00:48:55.023Z,4.83
2019-02-12T00:51:23.803Z,3.77
2019-02-12T00:53:52.539Z,4.17
2019-02-12T00:56:21.333Z,3.43
2019-02-12T00:58:50.360Z,11.10
2019-02-12T01:01:19.173Z,4.07
2019-02-12T01:03:47.987Z,2.90
2019-02-12T01:06:16.677Z,3.60
2019-02-12T01:08:45.393Z,6.57
2019-02-12T01:11:14.206Z,4.07
2019-02-12T01:13:43.009Z,9.33
2019-02-12T01:16:11.709Z,1.90
2019-02-12T01:18:40.435Z,7.33
2019-02-12T01:21:09.123Z,3.43
2019-02-12T01:23:37.855Z,3.63
2019-02-12T01:26:06.601Z,2.50
2019-02-12T01:28:35.421Z,1.87
2019-02-12T01:31:04.213Z,10.43
2019-02-12T01:33:33.018Z,1.40
2019-02-12T01:36:01.893Z,2.47
2019-02-12T01:38:30.642Z,1.67
2019-02-12T01:40:59.426Z,8.40
2019-02-12T01:43:28.241Z,6.63
2019-02-12T01:45:56.939Z,11.57
2019-02-12T01:48:25.677Z,4.63
2019-02-12T01:50:54.623Z,2.07
2019-02-12T01:53:23.362Z,1.87
2019-02-12T01:55:52.096Z,6.07
2019-02-12T01:58:20.851Z,9.03
2019-02-12T02:00:49.843Z,4.30
2019-02-12T02:03:18.569Z,5.40
2019-02-12T02:05:47.384Z,6.13
2019-02-12T02:08:16.177Z,4.67
2019-02-12T02:10:44.963Z,5.73
2019-02-12T02:13:13.711Z,2.77
2019-02-12T02:15:42.459Z,4.97
2019-02-12T02:18:11.251Z,5.67
2019-02-12T02:20:40.079Z,1.70
2019-02-12T02:23:08.871Z,5.10
2019-02-12T02:25:37.574Z,3.30
2019-02-12T02:28:06.336Z,1.77
2019-02-12T02:30:35.116Z,4.67
2019-02-12T02:33:04.033Z,2.60
2019-02-12T02:35:32.753Z,2.47
2019-02-12T02:38:01.470Z,5.63
2019-02-12T02:40:30.337Z,6.00
2019-02-12T02:42:59.056Z,1.60
2019-02-12T02:45:27.864Z,3.43
2019-02-12T02:47:56.559Z,2.87
2019-02-12T02:50:25.296Z,1.73
2019-02-12T02:52:54.010Z,8.43
2019-02-12T02:55:22.825Z,4.73
2019-02-12T02:57:51.540Z,4.93
2019-02-12T03:00:20.313Z,4.17
2019-02-12T03:02:49.103Z,2.97
2019-02-12T03:05:17.892Z,3.20
2019-02-12T03:07:46.621Z,4.10
2019-02-12T03:10:15.377Z,4.63
2019-02-12T03:12:44.166Z,5.17
2019-02-12T03:15:12.957Z,5.17
2019-02-12T03:17:41.658Z,4.73
2019-02-12T03:20:11.023Z,6.93
2019-02-12T03:22:39.819Z,6.37
2019-02-12T03:25:08.882Z,1.93
2019-02-12T03:27:37.681Z,10.60
2019-02-12T03:30:06.640Z,7.90
2019-02-12T03:32:35.415Z,2.77
2019-02-12T03:35:04.781Z,3.47
2019-02-12T03:37:33.567Z,4.33
2019-02-12T03:40:02.371Z,1.23
2019-02-12T03:42:31.165Z,4.63
2019-02-12T03:44:59.955Z,2.80
2019-02-12T03:47:28.726Z,5.23
2019-02-12T03:49:57.454Z,4.07
2019-02-12T03:52:26.180Z,4.83
2019-02-12T03:54:55.039Z,3.27
2019-02-12T03:57:23.871Z,6.20
2019-02-12T03:59:52.656Z,9.03
2019-02-12T04:02:21.348Z,1.33
2019-02-12T04:04:50.060Z,4.13
2019-02-12T04:07:18.833Z,2.50
2019-02-12T04:09:47.555Z,3.67
2019-02-12T04:12:16.365Z,2.17
2019-02-12T04:14:45.103Z,6.47
2019-02-12T04:17:13.928Z,2.07
2019-02-12T04:19:42.685Z,2.20
2019-02-12T04:22:11.448Z,5.60
2019-02-12T04:24:40.220Z,7.10
2019-02-12T04:27:09.020Z,1.73
2019-02-12T04:29:37.833Z,3.03
2019-02-12T04:32:06.577Z,9.40
2019-02-12T04:34:35.280Z,3.37
2019-02-12T04:37:04.050Z,1.53
2019-02-12T04:39:32.755Z,3.37
2019-02-12T04:42:01.489Z,5.97
2019-02-12T04:44:30.223Z,4.70
2019-02-12T04:46:59.075Z,2.57
2019-02-12T04:49:27.869Z,5.93
2019-02-12T04:51:56.590Z,7.07
2019-02-12T04:54:25.389Z,5.60
2019-02-12T04:56:54.132Z,8.93
2019-02-12T04:59:22.828Z,4.83
2019-02-12T05:01:51.581Z,0.67
2019-02-12T05:04:20.398Z,3.83
2019-02-12T05:06:49.148Z,3.50
2019-02-12T05:09:21.224Z,6.13
2019-02-12T05:11:51.361Z,3.20
2019-02-12T05:14:20.175Z,6.00
2019-02-12T05:16:48.965Z,5.63
2019-02-12T05:19:17.709Z,6.37
2019-02-12T05:21:46.508Z,3.50
2019-02-12T05:24:15.227Z,6.70
2019-02-12T05:26:44.035Z,11.17
2019-02-12T05:29:12.748Z,6.53
2019-02-12T05:31:41.531Z,6.10
2019-02-12T05:34:10.343Z,5.77
2019-02-12T05:36:39.223Z,6.07
2019-02-12T05:39:08.102Z,2.77
2019-02-12T05:41:36.965Z,4.83
2019-02-12T05:44:05.762Z,3.83
2019-02-12T05:46:34.516Z,6.70
2019-02-12T05:49:03.331Z,6.73
2019-02-12T05:51:32.164Z,2.73
2019-02-12T05:54:01.022Z,8.40
2019-02-12T05:56:29.810Z,6.67
2019-02-12T05:59:00.732Z,6.37
2019-02-12T06:01:29.564Z,8.30
2019-02-12T06:03:58.534Z,11.00
2019-02-12T06:06:27.279Z,7.60
2019-02-12T06:08:56.100Z,10.63
2019-02-12T06:11:24.842Z,5.13
2019-02-12T06:13:53.641Z,2.87
2019-02-12T06:16:22.408Z,4.87
2019-02-12T06:18:51.233Z,3.50
2019-02-12T06:21:20.021Z,9.63
2019-02-12T06:23:48.862Z,7.67
2019-02-12T06:26:17.653Z,6.60
2019-02-12T06:28:46.440Z,11.53
2019-02-12T06:31:15.200Z,4.23
2019-02-12T06:33:43.993Z,4.93
2019-02-12T06:36:12.819Z,15.00
2019-02-12T06:38:41.588Z,3.90
2019-02-12T06:41:10.494Z,6.10
2019-02-12T06:43:39.229Z,3.77
2019-02-12T06:46:07.935Z,15.60
2019-02-12T06:48:36.673Z,7.87
2019-02-12T06:51:05.448Z,5.53
2019-02-12T06:53:34.311Z,7.43
2019-02-12T06:56:03.081Z,8.37
2019-02-12T06:58:31.834Z,8.27
2019-02-12T07:01:03.717Z,4.40
2019-02-12T07:03:46.147Z,9.23
2019-02-12T07:06:18.112Z,9.50
2019-02-12T07:09:08.193Z,6.97
2019-02-12T07:12:02.170Z,13.73
2019-02-12T07:14:36.684Z,7.93
2019-02-12T07:17:13.490Z,16.60
2019-02-12T07:19:52.271Z,14.33
2019-02-12T07:22:27.187Z,14.50
2019-02-12T07:25:15.124Z,8.80
2019-02-12T07:28:06.030Z,11.53
2019-02-12T07:30:41.064Z,5.67
2019-02-12T07:33:31.224Z,8.30
2019-02-12T07:36:10.276Z,6.97
2019-02-12T07:38:58.181Z,10.70
2019-02-12T07:41:52.395Z,8.00
2019-02-12T07:44:40.287Z,11.93
2019-02-12T07:47:21.390Z,6.93
2019-02-12T07:50:18.493Z,10.77
2019-02-12T07:52:57.427Z,9.47
2019-02-12T07:55:54.274Z,8.83
2019-02-12T07:58:41.285Z,5.80
2019-02-12T08:01:29.193Z,7.30
2019-02-12T08:04:15.856Z,5.80
2019-02-12T08:07:12.868Z,6.07
2019-02-12T08:10:02.080Z,27.40
2019-02-12T08:12:36.097Z,8.63
2019-02-12T08:15:11.364Z,4.67
2019-02-12T08:17:48.249Z,5.20
2019-02-12T08:20:42.112Z,4.97
2019-02-12T08:23:41.082Z,6.13
2019-02-12T08:26:15.749Z,7.40
2019-02-12T08:29:09.692Z,11.97
2019-02-12T08:31:57.671Z,9.10
2019-02-12T08:34:41.536Z,9.57
2019-02-12T08:37:32.829Z,13.70
2019-02-12T08:40:19.540Z,7.63
2019-02-12T08:43:10.461Z,6.63
2019-02-12T08:45:47.215Z,8.30
2019-02-12T08:48:28.696Z,12.33
2019-02-12T08:51:25.988Z,4.33
2019-02-12T08:54:12.751Z,11.00
2019-02-12T08:56:45.823Z,8.60
2019-02-12T08:59:29.665Z,7.97
2019-02-12T09:02:16.179Z,6.90
2019-02-12T09:05:19.232Z,7.27
2019-02-12T09:07:51.861Z,9.40
2019-02-12T09:10:51.767Z,4.07
2019-02-12T09:13:48.905Z,13.50
2019-02-12T09:16:25.725Z,5.07
2019-02-12T09:19:01.328Z,12.10
2019-02-12T09:21:55.210Z,11.07
2019-02-12T09:24:42.139Z,8.63
2019-02-12T09:27:23.353Z,9.43
2019-02-12T09:29:55.664Z,8.80
2019-02-12T09:32:39.697Z,8.03
2019-02-12T09:35:16.876Z,7.47
2019-02-12T09:38:07.562Z,8.63
2019-02-12T09:40:39.665Z,10.57
2019-02-12T09:43:39.451Z,8.57
2019-02-12T09:46:27.288Z,2.93
2019-02-12T09:49:03.679Z,3.23
2019-02-12T09:51:37.065Z,7.50
2019-02-12T09:54:21.022Z,11.43
2019-02-12T09:57:08.919Z,7.63
2019-02-12T10:00:14.950Z,4.43
2019-02-12T10:03:11.480Z,13.60
2019-02-12T10:06:05.559Z,11.90
2019-02-12T10:09:11.874Z,11.87
2019-02-12T10:12:05.554Z,4.40
2019-02-12T10:14:41.236Z,9.70
2019-02-12T10:17:12.956Z,6.47
2019-02-12T10:19:49.786Z,4.70
2019-02-12T10:22:37.689Z,9.63
2019-02-12T10:25:40.156Z,8.57
2019-02-12T10:28:34.001Z,15.47
2019-02-12T10:31:07.799Z,7.70
2019-02-12T10:33:36.626Z,9.63
2019-02-12T10:36:05.410Z,14.03
2019-02-12T10:38:34.130Z,8.50
2019-02-12T10:41:03.127Z,6.47
2019-02-12T10:43:31.932Z,10.27
2019-02-12T10:46:00.784Z,7.13
2019-02-12T10:48:29.576Z,4.90
2019-02-12T10:50:58.288Z,5.50
2019-02-12T10:53:27.060Z,5.00
2019-02-12T10:55:56.026Z,9.33
2019-02-12T10:58:24.838Z,8.10
2019-02-12T11:00:53.653Z,6.47
2019-02-12T11:03:22.476Z,9.03
2019-02-12T11:05:51.266Z,10.50
2019-02-12T11:08:21.895Z,9.30
2019-02-12T11:10:52.044Z,7.43
2019-02-12T11:13:20.843Z,5.67
2019-02-12T11:15:49.595Z,8.93
2019-02-12T11:18:18.330Z,9.57
2019-02-12T11:20:47.113Z,7.03
2019-02-12T11:23:15.905Z,9.63
2019-02-12T11:25:44.707Z,7.33
2019-02-12T11:28:13.414Z,11.13
2019-02-12T11:30:42.149Z,12.57
2019-02-12T11:33:10.954Z,7.70
2019-02-12T11:35:39.650Z,7.20
2019-02-12T11:38:08.489Z,12.13
2019-02-12T11:40:38.720Z,3.87
2019-02-12T11:43:07.598Z,6.93
2019-02-12T11:45:36.422Z,13.97
2019-02-12T11:48:05.194Z,6.67
2019-02-12T11:50:34.034Z,3.53
2019-02-12T11:53:02.861Z,4.87
2019-02-12T11:55:31.878Z,4.33
2019-02-12T11:58:00.613Z,3.87
2019-02-12T12:00:34.967Z,5.10
2019-02-12T12:03:03.766Z,4.07
2019-02-12T12:05:32.478Z,7.47
2019-02-12T12:08:01.195Z,8.80
2019-02-12T12:10:30.025Z,2.03
2019-02-12T12:12:58.796Z,6.30
2019-02-12T12:15:27.602Z,5.90
2019-02-12T12:17:56.332Z,10.00
2019-02-12T12:20:25.100Z,3.57
2019-02-12T12:22:53.825Z,6.63
2019-02-12T12:25:22.556Z,12.20
2019-02-12T12:27:51.288Z,4.30
2019-02-12T12:30:20.001Z,5.40
2019-02-12T12:32:48.798Z,3.97
2019-02-12T12:35:17.793Z,7.47
2019-02-12T12:37:46.660Z,5.37
2019-02-12T12:40:15.457Z,4.47
2019-02-12T12:42:44.182Z,8.00
2019-02-12T12:45:13.573Z,6.40
2019-02-12T12:47:42.326Z,5.27
2019-02-12T12:50:11.140Z,6.37
2019-02-12T12:52:39.940Z,5.77
2019-02-12T12:55:08.757Z,8.70
2019-02-12T12:57:42.087Z,6.97
2019-02-12T13:00:08.967Z,4.23
2019-02-12T13:02:37.759Z,4.33
2019-02-12T13:05:07.133Z,6.37
2019-02-12T13:07:35.925Z,9.17
2019-02-12T13:10:05.199Z,10.77
2019-02-12T13:12:33.954Z,8.63
2019-02-12T13:15:02.685Z,6.67
2019-02-12T13:17:31.514Z,4.17
2019-02-12T13:20:00.305Z,8.87
2019-02-12T13:22:29.039Z,9.57
2019-02-12T13:24:57.796Z,6.13
2019-02-12T13:27:26.581Z,8.57
2019-02-12T13:29:55.376Z,5.20
2019-02-12T13:32:24.159Z,11.50
2019-02-12T13:34:52.923Z,8.87
2019-02-12T13:37:21.696Z,6.03
2019-02-12T13:39:51.721Z,2.63
2019-02-12T13:42:20.511Z,6.07
2019-02-12T13:44:49.341Z,7.97
2019-02-12T13:47:18.111Z,4.13
2019-02-12T13:49:47.243Z,5.40
2019-02-12T13:52:16.025Z,2.97
2019-02-12T13:54:44.837Z,2.73
2019-02-12T13:57:16.642Z,7.57
2019-02-12T13:59:45.491Z,3.20
2019-02-12T14:02:14.207Z,7.27
2019-02-12T14:04:42.943Z,3.90
2019-02-12T14:07:11.691Z,6.37
2019-02-12T14:09:40.491Z,7.73
2019-02-12T14:12:09.264Z,2.77
2019-02-12T14:14:38.026Z,7.37
2019-02-12T14:17:06.913Z,3.10
2019-02-12T14:19:35.860Z,5.87
2019-02-12T14:22:04.668Z,2.07
2019-02-12T14:24:33.504Z,4.93
2019-02-12T14:27:07.638Z,7.83
2019-02-12T14:29:36.343Z,0.77
2019-02-12T14:32:05.046Z,6.47
2019-02-12T14:34:33.830Z,4.73
2019-02-12T14:37:05.423Z,6.17
2019-02-12T14:39:40.424Z,5.43
2019-02-12T14:42:09.168Z,12.10
2019-02-12T14:44:37.953Z,9.70
2019-02-12T14:47:06.784Z,3.90
2019-02-12T14:49:35.758Z,5.93
2019-02-12T14:52:04.570Z,7.53
2019-02-12T14:54:33.413Z,8.43
2019-02-12T14:57:02.261Z,7.03
2019-02-12T14:59:31.055Z,5.80
2019-02-12T15:01:59.833Z,7.07
2019-02-12T15:04:28.631Z,7.83
2019-02-12T15:06:57.426Z,3.20
2019-02-12T15:09:26.292Z,10.03
2019-02-12T15:11:55.182Z,6.77
2019-02-12T15:14:23.904Z,4.03
2019-02-12T15:16:52.693Z,8.60
2019-02-12T15:19:21.418Z,7.37
2019-02-12T15:21:50.165Z,7.43
2019-02-12T15:24:18.964Z,4.17
2019-02-12T15:26:47.694Z,6.43
2019-02-12T15:29:16.451Z,2.10
2019-02-12T15:31:45.271Z,9.27
2019-02-12T15:34:14.531Z,3.03
2019-02-12T15:36:43.318Z,5.83
2019-02-12T15:39:12.292Z,6.20
2019-02-12T15:41:41.078Z,5.20
2019-02-12T15:44:09.839Z,9.00
2019-02-12T15:46:38.604Z,6.50
2019-02-12T15:49:07.416Z,15.87
2019-02-12T15:51:36.120Z,7.63
2019-02-12T15:54:04.864Z,5.83
2019-02-12T15:56:33.626Z,5.93
2019-02-12T15:59:03.121Z,8.30
2019-02-12T16:01:31.964Z,5.40
2019-02-12T16:04:00.740Z,6.37
2019-02-12T16:06:29.516Z,14.50
2019-02-12T16:08:58.305Z,5.90
2019-02-12T16:11:27.071Z,10.13
2019-02-12T16:13:56.746Z,9.87
2019-02-12T16:16:27.986Z,18.73
2019-02-12T16:18:56.912Z,8.33
2019-02-12T16:21:25.647Z,8.57
2019-02-12T16:23:54.460Z,12.83
2019-02-12T16:26:23.277Z,11.20
2019-02-12T16:28:52.166Z,8.73
2019-02-12T16:31:20.945Z,12.27
2019-02-12T16:33:49.700Z,11.63
2019-02-12T16:36:18.537Z,5.40
2019-02-12T16:38:48.924Z,7.97
2019-02-12T16:41:17.922Z,9.63
2019-02-12T16:43:46.843Z,6.50
2019-02-12T16:46:17.396Z,7.63
2019-02-12T16:48:46.314Z,5.63
2019-02-12T16:51:15.662Z,8.33
2019-02-12T16:53:44.423Z,4.17
2019-02-12T16:56:13.196Z,19.43
2019-02-12T16:58:41.907Z,5.00
2019-02-12T17:01:10.729Z,7.37
2019-02-12T17:03:39.597Z,6.20
2019-02-12T17:06:08.812Z,7.27
2019-02-12T17:08:37.606Z,5.93
2019-02-12T17:11:06.349Z,5.00
2019-02-12T17:13:35.233Z,13.13
2019-02-12T17:16:04.071Z,10.33
2019-02-12T17:18:32.880Z,6.93
2019-02-12T17:21:01.635Z,8.87
2019-02-12T17:23:33.763Z,10.53
2019-02-12T17:26:02.595Z,10.87
2019-02-12T17:28:31.452Z,10.17
2019-02-12T17:31:00.193Z,12.30
2019-02-12T17:33:29.032Z,7.47
2019-02-12T17:35:57.819Z,14.37
2019-02-12T17:38:26.607Z,8.77
2019-02-12T17:40:55.362Z,7.77
2019-02-12T17:43:24.698Z,5.90
2019-02-12T17:45:53.440Z,3.97
2019-02-12T17:48:22.277Z,8.57
2019-02-12T17:50:51.129Z,7.93
2019-02-12T17:53:20.097Z,6.60
2019-02-12T17:55:49.275Z,5.57
2019-02-12T17:58:18.311Z,11.67
2019-02-12T18:00:47.068Z,9.97
2019-02-12T18:03:15.873Z,17.40
2019-02-12T18:05:45.313Z,8.67
2019-02-12T18:08:14.171Z,14.93
2019-02-12T18:10:43.019Z,8.60
2019-02-12T18:13:12.037Z,5.63
2019-02-12T18:15:42.320Z,6.73
2019-02-12T18:18:11.108Z,6.03
2019-02-12T18:20:39.946Z,10.57
2019-02-12T18:23:09.070Z,3.97
2019-02-12T18:25:41.025Z,4.97
2019-02-12T18:28:09.928Z,8.57
2019-02-12T18:30:38.687Z,3.70
2019-02-12T18:33:07.519Z,12.60
2019-02-12T18:35:36.460Z,7.60
2019-02-12T18:38:05.337Z,14.63
2019-02-12T18:40:34.240Z,14.17
2019-02-12T18:43:03.155Z,10.63
2019-02-12T18:45:34.322Z,10.97
2019-02-12T18:48:03.379Z,10.77
2019-02-12T18:50:32.269Z,13.93
2019-02-12T18:53:01.096Z,9.20
2019-02-12T18:55:35.210Z,11.43
2019-02-12T18:58:04.475Z,15.20
2019-02-12T19:00:33.415Z,9.63
2019-02-12T19:03:03.459Z,12.37
2019-02-12T19:05:37.183Z,12.47
2019-02-12T19:08:05.810Z,10.13
2019-02-12T19:10:34.637Z,9.17
2019-02-12T19:13:03.460Z,16.37
2019-02-12T19:15:36.968Z,10.27
2019-02-12T19:18:14.216Z,10.63
2019-02-12T19:20:43.134Z,9.93
2019-02-12T19:23:11.897Z,11.20
2019-02-12T19:25:40.771Z,13.37
2019-02-12T19:28:09.613Z,14.37
2019-02-12T19:30:38.525Z,10.57
2019-02-12T19:33:07.406Z,12.90
2019-02-12T19:35:36.268Z,13.57
2019-02-12T19:38:05.186Z,15.87
2019-02-12T19:40:34.587Z,16.27
2019-02-12T19:43:05.967Z,11.53
2019-02-12T19:45:34.805Z,11.63
2019-02-12T19:48:06.807Z,16.67
2019-02-12T19:50:35.783Z,13.23
2019-02-12T19:53:04.922Z,22.60
2019-02-12T19:55:34.249Z,14.90
2019-02-12T19:58:03.518Z,16.10
2019-02-12T20:00:32.413Z,20.97
2019-02-12T20:03:03.445Z,17.33
2019-02-12T20:05:32.598Z,14.93
2019-02-12T20:08:01.667Z,18.73
2019-02-12T20:10:30.974Z,26.03
2019-02-12T20:12:59.915Z,16.83
2019-02-12T20:15:28.923Z,18.87
2019-02-12T20:17:57.910Z,19.60
2019-02-12T20:20:29.215Z,16.83
2019-02-12T20:22:59.557Z,13.43
2019-02-12T20:25:28.470Z,17.07
2019-02-12T20:28:00.447Z,12.47
2019-02-12T20:30:33.640Z,9.83
2019-02-12T20:33:02.624Z,19.07
2019-02-12T20:35:36.521Z,24.10
2019-02-12T20:38:02.605Z,18.80
2019-02-12T20:40:34.914Z,15.93
2019-02-12T20:43:03.861Z,15.37
2019-02-12T20:45:36.159Z,17.27
2019-02-12T20:48:05.099Z,21.13
2019-02-12T20:50:34.026Z,14.43
2019-02-12T20:53:03.137Z,16.50
2019-02-12T20:55:32.057Z,16.00
2019-02-12T20:58:01.048Z,11.23
2019-02-12T21:00:30.049Z,15.50
2019-02-12T21:03:05.207Z,11.27
2019-02-12T21:05:34.069Z,13.80
2019-02-12T21:08:05.283Z,15.73
2019-02-12T21:10:34.179Z,13.70
2019-02-12T21:13:05.484Z,17.43
2019-02-12T21:15:34.235Z,19.70
2019-02-12T21:18:04.365Z,17.47
2019-02-12T21:20:33.140Z,15.97
2019-02-12T21:23:01.970Z,17.50
2019-02-12T21:25:30.779Z,18.47
2019-02-12T21:27:59.612Z,18.90
2019-02-12T21:30:28.532Z,18.93
2019-02-12T21:32:58.663Z,15.13
2019-02-12T21:35:27.482Z,18.53
2019-02-12T21:37:56.488Z,16.80
2019-02-12T21:40:25.381Z,13.33
2019-02-12T21:42:54.185Z,16.50
2019-02-12T21:45:23.032Z,16.50
2019-02-12T21:47:51.871Z,14.33
2019-02-12T21:50:20.722Z,23.97
2019-02-12T21:52:49.569Z,15.13
2019-02-12T21:55:18.477Z,15.10
2019-02-12T21:57:47.389Z,15.77
2019-02-12T22:00:16.387Z,10.43
2019-02-12T22:02:45.162Z,13.73
2019-02-12T22:05:14.396Z,14.80
2019-02-12T22:07:43.132Z,16.00
2019-02-12T22:10:13.000Z,13.63
2019-02-12T22:12:41.733Z,19.97
2019-02-12T22:15:12.441Z,18.87
2019-02-12T22:17:41.530Z,14.43
2019-02-12T22:20:11.245Z,15.13
2019-02-12T22:22:40.141Z,16.13
2019-02-12T22:25:08.972Z,11.53
2019-02-12T22:27:40.379Z,12.77
2019-02-12T22:30:10.196Z,16.00
2019-02-12T22:32:39.023Z,14.10
2019-02-12T22:35:07.898Z,18.20
2019-02-12T22:37:36.721Z,12.43
2019-02-12T22:40:05.885Z,17.27
2019-02-12T22:42:34.619Z,12.17
2019-02-12T22:45:03.368Z,14.67
2019-02-12T22:47:32.199Z,11.90
2019-02-12T22:50:00.964Z,15.50
2019-02-12T22:52:29.690Z,21.17
2019-02-12T22:54:58.443Z,17.30
2019-02-12T22:57:27.201Z,13.23
2019-02-12T22:59:56.103Z,11.57
2019-02-12T23:02:24.912Z,19.47
2019-02-12T23:04:53.674Z,12.27
2019-02-12T23:07:22.556Z,17.63
2019-02-12T23:09:51.364Z,18.60
2019-02-12T23:12:20.068Z,15.63
2019-02-12T23:14:48.873Z,14.97
2019-02-12T23:17:17.620Z,15.63
2019-02-12T23:19:46.457Z,18.83
2019-02-12T23:22:15.173Z,13.50
2019-02-12T23:24:43.900Z,16.93
2019-02-12T23:27:12.763Z,14.40
2019-02-12T23:29:41.608Z,17.00
2019-02-12T23:32:12.490Z,17.20
2019-02-12T23:34:41.338Z,16.27
2019-02-12T23:37:10.100Z,14.57
2019-02-12T23:39:38.956Z,16.00
2019-02-12T23:42:07.855Z,17.40
2019-02-12T23:44:36.664Z,18.53
2019-02-12T23:47:05.447Z,16.20
2019-02-12T23:49:34.221Z,15.03
2019-02-12T23:52:03.022Z,18.57
2019-02-12T23:54:31.757Z,16.33
2019-02-12T23:57:00.510Z,15.97
2019-02-12T23:59:29.303Z,25.13
